Time;durP1;ratioP1;P1;durP2;ratioP2;P2;SDS_P1;SDS_P2;PMS_P1;PMS_P2;Temp;Humidity;BMP_temperature;BMP_pressure;BME280_temperature;BME280_humidity;BME280_pressure;Samples;Min_cycle;Max_cycle;Signal;HPM_P1;HPM_P2
2022/11/08 00:01:30;;;;;;;25.20;17.00;;;;;;;5.06;77.69;97506.76;1717824;83;25211;-75
2022/11/08 00:02:54;;;;;;;29.32;18.42;;;;;;;5.13;77.76;97514.91;1630431;88;25874;-74
2022/11/08 00:13:56;;;;;;;25.80;15.72;;;;;;;5.22;77.83;97506.66;1630561;88;25857;-73
2022/11/08 00:16:24;;;;;;;22.27;15.90;;;;;;;5.25;77.96;97506.31;1630697;87;25713;-73
2022/11/08 00:18:53;;;;;;;22.37;15.10;;;;;;;5.26;77.93;97513.34;1630755;87;25541;-75
2022/11/08 00:21:21;;;;;;;23.18;15.65;;;;;;;5.30;78.00;97509.31;1630564;87;28091;-75
2022/11/08 00:23:49;;;;;;;24.57;16.77;;;;;;;5.29;78.06;97503.63;1630615;87;25774;-73
2022/11/08 00:26:16;;;;;;;22.95;14.83;;;;;;;5.30;78.15;97507.14;1630755;87;25741;-76
2022/11/08 00:28:43;;;;;;;23.95;14.90;;;;;;;5.31;78.12;97511.48;1630469;88;26569;-73
2022/11/08 00:31:10;;;;;;;22.17;14.90;;;;;;;5.32;78.20;97510.45;1630674;87;25885;-72
2022/11/08 00:33:36;;;;;;;21.30;14.60;;;;;;;5.36;78.21;97515.28;1630747;87;27395;-75
2022/11/08 00:36:04;;;;;;;20.85;13.35;;;;;;;5.40;78.20;97516.61;1630328;88;25777;-73
2022/11/08 00:38:30;;;;;;;23.90;14.60;;;;;;;5.44;78.18;97512.55;1630719;87;25715;-76
2022/11/08 00:40:57;;;;;;;21.17;14.38;;;;;;;5.48;78.19;97514.38;1630752;87;25765;-72
2022/11/08 00:43:24;;;;;;;26.35;14.45;;;;;;;5.51;78.20;97513.20;1631568;87;25826;-73
2022/11/08 00:45:50;;;;;;;22.50;15.32;;;;;;;5.53;78.21;97508.50;1633359;87;27464;-72
2022/11/08 00:48:17;;;;;;;26.00;15.68;;;;;;;5.54;78.20;97508.83;1633590;87;25861;-74
2022/11/08 00:50:44;;;;;;;22.40;14.33;;;;;;;5.56;78.23;97516.16;1633244;87;25262;-73
2022/11/08 00:53:10;;;;;;;24.72;14.98;;;;;;;5.56;78.30;97513.48;1633528;87;25877;-76
2022/11/08 00:55:37;;;;;;;19.40;13.10;;;;;;;5.57;78.33;97514.65;1633459;87;25785;-77
2022/11/08 00:58:03;;;;;;;23.05;14.45;;;;;;;5.58;78.32;97514.14;1633604;87;27364;-75
2022/11/08 01:00:30;;;;;;;23.85;14.35;;;;;;;5.60;78.35;97514.80;1633528;87;25903;-76
2022/11/08 01:05:41;;;;;;;25.75;14.63;;;;;;;5.63;78.38;97515.30;1718636;83;25726;-73
2022/11/08 01:08:09;;;;;;;25.02;15.15;;;;;;;5.66;78.41;97508.75;1718921;83;25468;-72
2022/11/08 01:10:38;;;;;;;21.27;14.73;;;;;;;5.66;78.36;97507.41;1718695;83;27437;-73
2022/11/08 01:13:04;;;;;;;25.30;13.80;;;;;;;5.66;78.45;97510.93;1695775;83;25305;-72
2022/11/08 01:15:37;;;;;;;24.67;14.18;;;;;;;5.64;78.45;97508.92;1718635;83;25715;-74
2022/11/08 01:18:04;;;;;;;25.88;14.98;;;;;;;5.65;78.39;97504.41;1633350;87;25808;-75
2022/11/08 01:20:30;;;;;;;19.35;13.32;;;;;;;5.63;78.40;97496.55;1633518;87;26334;-73
2022/11/08 01:22:57;;;;;;;21.40;13.60;;;;;;;5.61;78.38;97499.07;1633557;87;27397;-72
2022/11/08 01:25:24;;;;;;;19.37;12.47;;;;;;;5.62;78.32;97494.88;1633412;87;25555;-73
2022/11/08 01:27:50;;;;;;;21.77;12.93;;;;;;;5.61;78.30;97496.39;1633461;87;25774;-74
2022/11/08 01:30:17;;;;;;;19.80;12.53;;;;;;;5.61;78.21;97500.41;1633556;87;26306;-76
2022/11/08 01:32:44;;;;;;;15.70;11.05;;;;;;;5.57;78.15;97493.73;1633573;87;25540;-72
2022/11/08 01:35:10;;;;;;;16.73;11.53;;;;;;;5.52;78.10;97500.98;1633483;87;28180;-73
2022/11/08 01:37:37;;;;;;;15.08;10.88;;;;;;;5.50;78.03;97498.14;1633340;87;25516;-73
2022/11/08 01:40:06;;;;;;;15.38;10.55;;;;;;;5.47;77.92;97493.13;1633556;87;25761;-76
2022/11/08 01:42:32;;;;;;;15.72;10.28;;;;;;;5.38;77.86;97498.55;1633474;87;25695;-76
2022/11/08 01:45:04;;;;;;;18.17;11.12;;;;;;;5.35;77.91;97499.39;1618145;87;25797;-75
2022/11/08 01:47:30;;;;;;;20.05;12.45;;;;;;;5.32;77.82;97496.56;1617317;88;28030;-72
2022/11/08 01:50:07;;;;;;;16.48;11.80;;;;;;;5.29;77.81;97502.28;1616800;88;26049;-73
2022/11/08 01:52:38;;;;;;;24.15;11.28;;;;;;;5.25;77.83;97498.28;1617069;88;25789;-73
2022/11/08 01:55:29;;;;;;;15.88;10.43;;;;;;;5.19;77.73;97497.66;1545403;92;25824;-73
2022/11/08 01:58:12;;;;;;;15.30;10.90;;;;;;;5.14;77.65;97499.19;1544244;92;25777;-72
2022/11/08 02:00:39;;;;;;;20.10;11.03;;;;;;;5.09;77.57;97493.00;1495896;95;27438;-73
2022/11/08 02:03:10;;;;;;;17.35;10.25;;;;;;;5.03;77.58;97495.89;1498009;95;25790;-74
2022/11/08 02:05:37;;;;;;;19.62;11.85;;;;;;;4.95;77.59;97501.80;1497984;95;25875;-72
2022/11/08 02:08:20;;;;;;;19.50;11.75;;;;;;;4.93;77.66;97497.11;1498005;95;25839;-75
2022/11/08 02:10:51;;;;;;;17.98;11.03;;;;;;;4.91;77.68;97495.11;1498115;95;25553;-73
2022/11/08 02:13:25;;;;;;;21.90;12.05;;;;;;;4.85;77.49;97494.45;1498006;95;27445;-73
2022/11/08 02:15:51;;;;;;;21.37;11.43;;;;;;;4.81;77.41;97498.50;1451120;98;26491;-74
2022/11/08 02:18:21;;;;;;;16.67;10.15;;;;;;;4.74;77.53;97495.67;1452390;98;25863;-73
2022/11/08 02:21:20;;;;;;;20.45;11.33;;;;;;;4.71;77.49;97491.48;1452429;98;25700;-74
2022/11/08 02:23:53;;;;;;;19.52;11.25;;;;;;;4.66;77.48;97491.19;1452600;98;26035;-74
2022/11/08 02:26:31;;;;;;;21.07;11.18;;;;;;;4.59;77.53;97495.54;1452517;98;27722;-77
2022/11/08 02:28:57;;;;;;;21.57;12.23;;;;;;;4.53;77.57;97492.23;1431777;100;25603;-75
2022/11/08 02:31:24;;;;;;;23.10;11.35;;;;;;;4.49;77.69;97485.55;1431946;100;25911;-72
2022/11/08 02:33:51;;;;;;;17.30;10.70;;;;;;;4.47;77.74;97487.55;1431771;100;25874;-73
2022/11/08 02:36:22;;;;;;;19.67;10.45;;;;;;;4.44;77.69;97482.57;1431846;100;25857;-73
2022/11/08 02:38:53;;;;;;;18.65;10.93;;;;;;;4.40;77.67;97485.25;1431414;100;27453;-73
2022/11/08 02:41:20;;;;;;;15.88;10.60;;;;;;;4.34;77.68;97493.96;1392017;103;25670;-73
2022/11/08 02:43:46;;;;;;;20.05;10.70;;;;;;;4.33;77.68;97493.13;1392173;103;25645;-75
2022/11/08 02:46:13;;;;;;;25.05;11.88;;;;;;;4.33;77.68;97491.79;1392532;103;25747;-74
2022/11/08 02:48:40;;;;;;;20.30;11.30;;;;;;;4.31;77.61;97486.28;1392903;103;25603;-72
2022/11/08 02:51:06;;;;;;;17.80;10.72;;;;;;;4.28;77.59;97490.61;1400264;98;28163;-73
2022/11/08 02:53:33;;;;;;;18.57;11.22;;;;;;;4.21;77.60;97492.31;1454073;98;25913;-73
2022/11/08 02:56:00;;;;;;;16.95;10.23;;;;;;;4.17;77.71;97487.80;1460066;97;26128;-76
2022/11/08 02:58:26;;;;;;;16.50;10.40;;;;;;;4.17;77.70;97486.96;1472543;97;26327;-71
2022/11/08 03:00:53;;;;;;;15.88;9.15;;;;;;;4.15;77.67;97491.63;1472350;97;25806;-73
2022/11/08 03:03:20;;;;;;;12.18;8.03;;;;;;;4.08;77.68;97490.66;1468357;97;27517;-73
2022/11/08 03:05:46;;;;;;;12.25;7.03;;;;;;;4.07;77.82;97491.66;1468292;97;25746;-73
2022/11/08 03:08:14;;;;;;;12.55;8.00;;;;;;;4.07;78.01;97490.32;1468158;97;25891;-73
2022/11/08 03:10:40;;;;;;;13.53;7.62;;;;;;;4.06;78.12;97493.98;1468349;97;26413;-73
2022/11/08 03:13:07;;;;;;;10.80;7.53;;;;;;;4.09;78.29;97493.16;1496493;94;25827;-73
2022/11/08 03:15:34;;;;;;;14.10;7.30;;;;;;;4.10;78.31;97489.98;1511247;94;28052;-77
2022/11/08 03:18:01;;;;;;;9.78;6.60;;;;;;;4.09;78.46;97489.66;1511120;94;25757;-73
2022/11/08 03:20:28;;;;;;;9.50;6.17;;;;;;;4.10;78.60;97485.98;1511206;94;25903;-72
2022/11/08 03:23:04;;;;;;;12.13;6.83;;;;;;;4.12;78.66;97485.28;1511093;94;25847;-74
2022/11/08 03:25:31;;;;;;;8.90;6.03;;;;;;;4.17;78.69;97484.29;1541069;90;25877;-74
2022/11/08 03:28:06;;;;;;;10.58;6.78;;;;;;;4.18;78.69;97485.96;1582401;90;27509;-73
2022/11/08 03:30:34;;;;;;;10.65;5.58;;;;;;;4.19;78.80;97489.80;1582541;90;25850;-73
2022/11/08 03:33:02;;;;;;;9.48;6.15;;;;;;;4.22;78.79;97487.30;1582593;90;25897;-75
2022/11/08 03:35:28;;;;;;;9.10;6.72;;;;;;;4.23;78.83;97483.59;1582594;90;25583;-75
2022/11/08 03:37:57;;;;;;;10.10;6.37;;;;;;;4.25;78.83;97484.27;1582626;90;25816;-74
2022/11/08 03:40:24;;;;;;;12.35;7.37;;;;;;;4.24;78.80;97486.60;1582634;90;27640;-76
2022/11/08 03:42:50;;;;;;;12.35;6.58;;;;;;;4.25;78.86;97484.27;1582572;90;25535;-75
2022/11/08 03:45:17;;;;;;;10.10;7.00;;;;;;;4.26;78.92;97484.09;1678856;84;25686;-74
2022/11/08 03:47:46;;;;;;;10.18;6.83;;;;;;;4.28;78.92;97482.60;1723030;83;25741;-76
2022/11/08 03:50:15;;;;;;;10.68;6.70;;;;;;;4.30;78.90;97485.94;1707069;84;25743;-74
2022/11/08 03:52:46;;;;;;;12.13;6.97;;;;;;;4.30;78.93;97477.92;1707476;84;27384;-75
2022/11/08 03:55:13;;;;;;;9.73;6.83;;;;;;;4.30;78.87;97484.60;1641270;87;25757;-73
2022/11/08 03:57:41;;;;;;;12.82;6.72;;;;;;;4.29;78.87;97489.61;1696760;84;25853;-73
2022/11/08 04:00:11;;;;;;;9.50;6.70;;;;;;;4.31;78.90;97486.28;1696780;84;25687;-73
2022/11/08 04:02:38;;;;;;;8.55;6.67;;;;;;;4.32;79.00;97481.27;1696762;84;25886;-73
2022/11/08 04:05:08;;;;;;;10.98;7.60;;;;;;;4.34;79.03;97485.94;1696772;84;27379;-75
2022/11/08 04:07:35;;;;;;;11.90;7.20;;;;;;;4.32;78.97;97486.61;1696705;84;25794;-72
2022/11/08 04:10:04;;;;;;;13.25;6.83;;;;;;;4.28;79.05;97476.75;1696694;84;25746;-72
2022/11/08 04:15:20;;;;;;;11.80;7.08;;;;;;;4.23;79.12;97487.60;1696616;84;25802;-73
2022/11/08 04:23:35;;;;;;;11.10;7.70;;;;;;;4.18;79.13;97480.12;1696709;84;25813;-72
2022/11/08 04:26:06;;;;;;;8.85;6.72;;;;;;;4.14;79.09;97484.13;1696711;84;25770;-72
2022/11/08 04:28:35;;;;;;;9.58;6.08;;;;;;;4.14;79.07;97488.13;1696747;84;25687;-73
2022/11/08 04:31:09;;;;;;;11.33;6.75;;;;;;;4.13;79.08;97481.61;1696780;84;26841;-75
2022/11/08 04:33:36;;;;;;;11.65;5.75;;;;;;;4.13;78.98;97478.44;1696555;84;25620;-72
2022/11/08 04:36:07;;;;;;;12.20;6.05;;;;;;;4.09;78.87;97475.80;1696844;84;25818;-73
2022/11/08 04:38:34;;;;;;;8.60;6.08;;;;;;;4.02;78.73;97480.13;1696899;83;25692;-73
2022/11/08 04:41:09;;;;;;;15.72;7.33;;;;;;;3.96;78.80;97482.16;1696744;84;25462;-76
2022/11/08 04:43:35;;;;;;;12.15;6.37;;;;;;;3.94;78.87;97475.64;1665887;85;27400;-73
2022/11/08 04:46:05;;;;;;;12.70;6.55;;;;;;;3.95;78.90;97476.47;1673701;85;25852;-73
2022/11/08 04:48:32;;;;;;;14.33;8.05;;;;;;;3.87;78.64;97475.12;1673882;85;25813;-73
2022/11/08 04:51:12;;;;;;;14.25;7.53;;;;;;;3.83;78.75;97479.98;1673622;85;25722;-74
2022/11/08 04:53:39;;;;;;;14.10;8.00;;;;;;;3.82;78.76;97478.81;1667148;86;25843;-73
2022/11/08 04:56:11;;;;;;;18.15;9.63;;;;;;;3.78;78.68;97477.47;1666927;86;45383;-73
2022/11/08 04:58:42;;;;;;;22.25;10.72;;;;;;;3.74;78.80;97474.32;1646304;87;25905;-73
2022/11/08 05:01:12;;;;;;;23.47;11.38;;;;;;;3.76;78.91;97474.96;1620077;88;25782;-73
2022/11/08 05:03:38;;;;;;;27.85;12.47;;;;;;;3.76;78.89;97475.46;1619925;88;26360;-72
2022/11/08 05:06:15;;;;;;;28.92;12.82;;;;;;;3.73;78.97;97476.66;1620177;88;26292;-73
2022/11/08 05:08:43;;;;;;;23.40;12.78;;;;;;;3.73;79.09;97475.82;1568310;91;27594;-73
2022/11/08 05:11:16;;;;;;;29.23;14.10;;;;;;;3.72;79.16;97478.16;1568047;91;25865;-74
2022/11/08 05:13:43;;;;;;;31.55;13.30;;;;;;;3.73;79.17;97480.66;1568222;91;25369;-72
2022/11/08 05:16:21;;;;;;;28.95;13.85;;;;;;;3.72;79.18;97474.98;1568265;91;25898;-73
2022/11/08 05:18:48;;;;;;;30.35;14.30;;;;;;;3.73;79.25;97477.98;1568211;91;25888;-73
2022/11/08 05:24:07;;;;;;;25.82;13.53;;;;;;;3.72;79.16;97476.32;1568023;91;25529;-73
2022/11/08 05:26:37;;;;;;;26.93;12.30;;;;;;;3.72;79.25;97476.32;1568296;91;25905;-73
2022/11/08 05:29:05;;;;;;;23.22;12.33;;;;;;;3.68;79.29;97472.30;1568234;91;25891;-72
2022/11/08 05:31:32;;;;;;;24.75;11.85;;;;;;;3.70;79.40;97484.16;1568220;91;25846;-73
2022/11/08 05:33:59;;;;;;;19.23;11.33;;;;;;;3.70;79.48;97475.64;1568266;91;27525;-75
2022/11/08 05:36:26;;;;;;;20.75;12.03;;;;;;;3.68;79.48;97478.98;1568069;91;25842;-73
2022/11/08 05:38:54;;;;;;;19.02;11.33;;;;;;;3.71;79.57;97483.99;1568207;91;25858;-73
2022/11/08 05:41:22;;;;;;;21.48;12.53;;;;;;;3.73;79.54;97482.00;1607708;88;25801;-71
2022/11/08 05:43:52;;;;;;;19.92;12.13;;;;;;;3.68;79.63;97482.98;1613556;88;25928;-73
2022/11/08 05:46:21;;;;;;;20.88;11.78;;;;;;;3.69;79.63;97486.48;1605874;89;27561;-72
2022/11/08 05:48:48;;;;;;;18.02;10.75;;;;;;;3.69;79.66;97490.48;1606055;89;25574;-76
2022/11/08 05:51:17;;;;;;;17.82;10.35;;;;;;;3.69;79.69;97490.48;1606300;89;25881;-75
2022/11/08 05:53:45;;;;;;;17.85;10.65;;;;;;;3.65;79.75;97492.65;1606152;89;25696;-73
2022/11/08 05:56:12;;;;;;;16.73;9.00;;;;;;;3.65;79.80;97488.64;1606288;89;25927;-72
2022/11/08 05:58:38;;;;;;;17.65;9.13;;;;;;;3.64;79.85;97494.98;1619588;87;27393;-73
2022/11/08 06:01:10;;;;;;;17.57;9.73;;;;;;;3.63;79.84;97494.14;1639339;86;25838;-73
2022/11/08 06:03:37;;;;;;;16.42;9.93;;;;;;;3.63;79.84;97499.98;1640481;87;25350;-74
2022/11/08 06:06:10;;;;;;;21.05;10.40;;;;;;;3.64;79.85;97497.65;1698779;83;25697;-74
2022/11/08 06:08:38;;;;;;;21.62;11.97;;;;;;;3.66;79.77;97501.49;1724949;83;25940;-73
2022/11/08 06:11:18;;;;;;;23.25;13.85;;;;;;;3.65;79.76;97503.33;1725272;83;28125;-73
2022/11/08 06:13:44;;;;;;;29.95;14.65;;;;;;;3.66;79.81;97500.99;1665323;85;25893;-73
2022/11/08 06:16:14;;;;;;;32.83;17.40;;;;;;;3.67;79.86;97505.34;1664284;86;25793;-74
2022/11/08 06:18:41;;;;;;;35.50;18.55;;;;;;;3.68;80.02;97512.84;1664225;86;26584;-74
2022/11/08 06:21:11;;;;;;;35.08;18.37;;;;;;;3.69;80.11;97507.84;1664122;84;25824;-73
2022/11/08 06:23:38;;;;;;;31.48;18.45;;;;;;;3.71;80.18;97509.85;1664212;86;27253;-73
2022/11/08 06:26:05;;;;;;;41.28;18.75;;;;;;;3.74;80.36;97515.70;1665284;85;25549;-73
2022/11/08 06:28:32;;;;;;;35.60;18.17;;;;;;;3.78;80.53;97515.69;1664347;85;25841;-75
2022/11/08 06:31:01;;;;;;;30.00;17.80;;;;;;;3.79;80.57;97516.02;1665016;85;26492;-74
2022/11/08 06:33:28;;;;;;;39.80;20.10;;;;;;;3.80;80.58;97514.19;1664272;86;25824;-73
2022/11/08 06:35:55;;;;;;;40.55;19.15;;;;;;;3.83;80.61;97518.70;1664197;86;27393;-73
2022/11/08 06:38:22;;;;;;;30.20;17.60;;;;;;;3.84;80.70;97516.37;1664149;86;25238;-73
2022/11/08 06:40:48;;;;;;;24.55;14.15;;;;;;;3.87;80.73;97524.02;1664079;86;25868;-74
2022/11/08 06:43:15;;;;;;;28.83;14.83;;;;;;;3.92;80.78;97522.20;1664240;86;25641;-73
2022/11/08 06:45:41;;;;;;;22.95;14.45;;;;;;;3.96;80.84;97520.88;1662726;85;25789;-73
2022/11/08 06:48:09;;;;;;;26.68;13.85;;;;;;;4.02;80.86;97525.53;1662034;86;27441;-74
2022/11/08 06:50:36;;;;;;;27.13;14.70;;;;;;;4.06;80.81;97524.21;1662234;86;25800;-74
2022/11/08 06:53:06;;;;;;;25.90;14.55;;;;;;;4.08;80.79;97520.04;1662198;86;25729;-72
2022/11/08 06:55:34;;;;;;;26.93;13.68;;;;;;;4.11;80.79;97527.20;1662227;86;26507;-74
2022/11/08 06:58:02;;;;;;;26.42;14.58;;;;;;;4.17;80.94;97525.70;1662242;84;26289;-73
2022/11/08 07:00:29;;;;;;;30.72;14.03;;;;;;;4.20;80.97;97523.53;1655585;86;27562;-73
2022/11/08 07:02:59;;;;;;;28.77;13.18;;;;;;;4.26;81.08;97526.02;1649017;87;25514;-76
2022/11/08 07:05:28;;;;;;;27.30;12.35;;;;;;;4.30;81.19;97527.36;1649268;87;25771;-73
2022/11/08 07:07:57;;;;;;;25.37;12.53;;;;;;;4.35;81.33;97529.00;1649206;87;26331;-73
2022/11/08 07:10:27;;;;;;;24.77;12.07;;;;;;;4.40;81.42;97530.68;1692711;82;25479;-76
2022/11/08 07:13:07;;;;;;;18.92;11.12;;;;;;;4.46;81.51;97524.67;1738193;81;28261;-74
2022/11/08 07:15:35;;;;;;;26.40;13.43;;;;;;;4.54;81.66;97531.33;1736326;82;25788;-74
2022/11/08 07:18:09;;;;;;;32.17;17.00;;;;;;;4.62;81.75;97526.45;1738144;82;25679;-72
2022/11/08 07:20:38;;;;;;;43.42;19.02;;;;;;;4.69;81.83;97516.26;1736621;82;26330;-73
2022/11/08 07:23:06;;;;;;;44.08;20.25;;;;;;;4.80;81.92;97521.73;1738235;81;25759;-75
2022/11/08 07:25:33;;;;;;;49.88;23.65;;;;;;;4.89;82.03;97516.68;1738270;82;27436;-74
2022/11/08 07:28:03;;;;;;;43.50;19.65;;;;;;;4.99;82.09;97521.31;1738128;82;26226;-77
2022/11/08 07:30:31;;;;;;;39.05;19.67;;;;;;;5.10;82.08;97516.08;1738355;82;25728;-74
2022/11/08 07:32:58;;;;;;;38.08;20.17;;;;;;;5.22;82.11;97519.20;1737848;82;26501;-73
2022/11/08 07:35:27;;;;;;;30.60;17.95;;;;;;;5.34;82.16;97521.31;1738171;81;25723;-73
2022/11/08 07:37:54;;;;;;;33.75;17.87;;;;;;;5.47;82.17;97524.75;1738130;82;27394;-77
2022/11/08 07:40:21;;;;;;;33.38;16.65;;;;;;;5.61;82.25;97519.16;1738052;82;25676;-73
2022/11/08 07:42:48;;;;;;;28.07;14.73;;;;;;;5.75;82.19;97523.24;1738155;82;25724;-73
2022/11/08 07:45:14;;;;;;;27.27;12.82;;;;;;;5.92;82.23;97518.61;1755481;80;25682;-76
2022/11/08 07:47:41;;;;;;;21.33;12.07;;;;;;;6.10;82.21;97521.00;1784266;80;25799;-77
2022/11/08 07:50:09;;;;;;;17.48;11.22;;;;;;;6.28;82.14;97520.69;1784334;80;27425;-73
2022/11/08 07:52:36;;;;;;;20.60;11.83;;;;;;;6.47;82.17;97514.80;1784482;80;25430;-74
2022/11/08 07:55:03;;;;;;;24.35;15.55;;;;;;;6.66;82.15;97516.92;1784667;80;25745;-73
2022/11/08 07:57:29;;;;;;;27.00;17.95;;;;;;;6.88;82.12;97507.66;1784542;80;25710;-75
2022/11/08 07:59:56;;;;;;;26.07;17.25;;;;;;;7.07;82.01;97512.45;1784604;80;25619;-73
2022/11/08 08:02:22;;;;;;;22.60;15.20;;;;;;;7.25;81.84;97508.84;1784634;79;27366;-73
2022/11/08 08:04:49;;;;;;;20.12;12.13;;;;;;;7.44;81.68;97513.64;1784622;80;25441;-73
2022/11/08 08:07:16;;;;;;;18.65;10.90;;;;;;;7.63;81.49;97513.52;1784613;80;25715;-73
2022/11/08 08:09:42;;;;;;;17.32;9.80;;;;;;;7.81;81.28;97509.91;1784854;80;26385;-73
2022/11/08 08:12:09;;;;;;;13.58;8.38;;;;;;;8.01;81.13;97503.38;1784648;80;25460;-75
2022/11/08 08:14:36;;;;;;;13.22;7.45;;;;;;;8.21;80.92;97512.44;1784564;80;28038;-74
2022/11/08 08:17:02;;;;;;;14.03;7.95;;;;;;;8.42;80.70;97506.25;1784414;80;25789;-73
2022/11/08 08:19:29;;;;;;;12.43;6.97;;;;;;;8.64;80.52;97500.29;1784684;80;25208;-73
2022/11/08 08:21:55;;;;;;;10.32;6.42;;;;;;;8.85;80.32;97496.17;1784509;80;25738;-74
2022/11/08 08:24:22;;;;;;;9.28;6.05;;;;;;;9.06;80.04;97494.44;1784632;80;25392;-73
2022/11/08 08:26:48;;;;;;;9.35;6.55;;;;;;;9.27;79.75;97491.63;1784609;80;28126;-71
2022/11/08 08:29:15;;;;;;;11.65;6.90;;;;;;;9.48;79.30;97496.05;1784308;80;25901;-73
2022/11/08 08:31:42;;;;;;;13.58;6.85;;;;;;;9.67;79.08;97487.19;1784333;80;25646;-73
2022/11/08 08:34:08;;;;;;;10.55;5.87;;;;;;;9.90;78.76;97493.04;1784612;80;25752;-74
2022/11/08 08:36:35;;;;;;;10.53;5.92;;;;;;;10.10;78.39;97487.69;1784653;80;25669;-73
2022/11/08 08:39:01;;;;;;;10.23;5.87;;;;;;;10.28;78.08;97483.88;1784539;80;27348;-76
2022/11/08 08:41:28;;;;;;;8.63;5.60;;;;;;;10.46;77.78;97484.61;1784555;80;25778;-72
2022/11/08 08:43:55;;;;;;;11.75;5.58;;;;;;;10.65;77.31;97481.57;1784234;80;25734;-75
2022/11/08 08:46:21;;;;;;;8.88;5.33;;;;;;;10.84;77.04;97479.38;1784974;80;25820;-74
2022/11/08 08:48:48;;;;;;;8.28;4.95;;;;;;;11.06;76.75;97474.02;1785379;80;26776;-75
2022/11/08 08:51:14;;;;;;;9.18;4.80;;;;;;;11.25;76.28;97474.97;1785414;80;26839;-74
2022/11/08 08:53:41;;;;;;;10.08;4.90;;;;;;;11.43;75.79;97481.05;1785349;80;25682;-77
2022/11/08 08:56:08;;;;;;;14.25;9.08;;;;;;;11.62;75.50;97475.22;1785428;80;25749;-73
2022/11/08 08:58:34;;;;;;;6.90;4.42;;;;;;;11.80;74.75;97478.91;1786644;80;25674;-76
2022/11/08 09:01:07;;;;;;;9.73;6.30;;;;;;;11.94;74.23;97472.89;1785241;80;25664;-75
2022/11/08 09:03:35;;;;;;;11.40;5.28;;;;;;;12.09;74.36;97471.20;1785438;80;28026;-73
2022/11/08 09:06:02;;;;;;;9.08;5.00;;;;;;;12.28;74.08;97475.66;1785119;80;25472;-75
2022/11/08 09:08:29;;;;;;;7.83;4.22;;;;;;;12.45;73.35;97467.80;1785241;80;25670;-72
2022/11/08 09:10:59;;;;;;;7.00;4.25;;;;;;;12.57;72.92;97467.38;1785034;80;25721;-72
2022/11/08 09:13:27;;;;;;;6.60;3.70;;;;;;;12.75;72.88;97467.42;1736029;82;26074;-73
2022/11/08 09:15:54;;;;;;;6.85;3.90;;;;;;;12.96;72.46;97469.70;1736200;82;27672;-73
2022/11/08 09:18:21;;;;;;;8.53;3.87;;;;;;;13.17;72.17;97462.20;1735944;82;25730;-73
2022/11/08 09:20:48;;;;;;;8.15;3.77;;;;;;;13.38;71.73;97464.99;1736037;82;25774;-73
2022/11/08 09:23:16;;;;;;;9.45;4.40;;;;;;;13.57;71.62;97459.30;1735969;82;25678;-73
2022/11/08 09:25:42;;;;;;;4.65;3.77;;;;;;;13.78;71.14;97459.32;1736084;82;25770;-73
2022/11/08 09:28:09;;;;;;;5.33;3.92;;;;;;;13.92;70.12;97462.67;1736211;82;27382;-73
2022/11/08 09:30:36;;;;;;;4.80;3.55;;;;;;;14.06;69.38;97461.42;1735951;82;25299;-73
2022/11/08 09:33:04;;;;;;;5.30;3.35;;;;;;;14.17;68.85;97453.02;1736084;82;25756;-73
2022/11/08 09:35:30;;;;;;;6.53;3.92;;;;;;;14.27;68.46;97457.33;1736018;82;25893;-73
2022/11/08 09:37:58;;;;;;;6.05;3.70;;;;;;;14.37;68.01;97460.30;1735955;82;25591;-73
2022/11/08 09:40:39;;;;;;;5.15;3.90;;;;;;;14.47;67.13;97464.68;1735995;82;27551;-73
2022/11/08 09:43:39;;;;;;;7.72;3.75;;;;;;;14.54;67.01;97461.84;1715549;83;25792;-75
2022/11/08 09:46:14;;;;;;;6.33;4.15;;;;;;;14.66;66.73;97453.16;1715318;83;25814;-76
2022/11/08 09:48:43;;;;;;;5.45;3.62;;;;;;;14.92;66.87;97450.50;1711625;83;25822;-73
2022/11/08 09:51:19;;;;;;;4.95;3.60;;;;;;;15.11;66.26;97451.47;1715310;83;25750;-72
2022/11/08 09:53:55;;;;;;;5.65;3.83;;;;;;;15.26;65.88;97450.97;1715265;83;27377;-74
2022/11/08 09:56:32;;;;;;;7.42;3.98;;;;;;;15.44;65.52;97450.83;1715220;83;26541;-73
2022/11/08 09:59:28;;;;;;;6.90;4.35;;;;;;;15.70;65.01;97448.61;1715049;83;25815;-73
2022/11/08 10:01:55;;;;;;;7.37;4.12;;;;;;;16.03;63.83;97448.72;1706326;83;26300;-74
2022/11/08 10:04:26;;;;;;;5.87;3.90;;;;;;;16.41;63.65;97441.20;1715430;83;25708;-72
2022/11/08 10:07:18;;;;;;;5.97;3.80;;;;;;;16.82;63.03;97431.77;1715133;83;27535;-72
2022/11/08 10:10:22;;;;;;;6.65;3.95;;;;;;;17.15;62.31;97434.13;1724903;80;25772;-73
2022/11/08 10:13:05;;;;;;;5.58;2.92;;;;;;;17.35;62.25;97434.41;1676062;84;25797;-73
2022/11/08 10:16:07;;;;;;;6.20;3.85;;;;;;;17.50;61.49;97435.97;1679266;84;26380;-74
2022/11/08 10:18:54;;;;;;;6.20;3.50;;;;;;;17.63;60.97;97436.95;1683734;85;25896;-76
2022/11/08 10:21:29;;;;;;;6.53;4.20;;;;;;;17.84;60.64;97430.38;1682719;85;27463;-74
2022/11/08 10:24:06;;;;;;;5.97;3.72;;;;;;;18.06;60.46;97429.77;1680918;85;26422;-74
2022/11/08 10:26:41;;;;;;;4.45;3.22;;;;;;;18.29;60.22;97425.34;1605270;88;25836;-74
2022/11/08 10:29:28;;;;;;;4.87;3.37;;;;;;;18.48;59.61;97415.37;1602554;89;26585;-74
2022/11/08 10:32:06;;;;;;;4.72;3.58;;;;;;;18.64;58.96;97414.44;1605682;88;26203;-75
2022/11/08 10:34:47;;;;;;;7.30;3.12;;;;;;;18.75;58.40;97409.31;1601744;89;27507;-76
2022/11/08 10:37:16;;;;;;;4.17;3.20;;;;;;;18.85;58.07;97409.37;1604870;89;25788;-74
2022/11/08 10:39:56;;;;;;;4.03;3.22;;;;;;;18.98;57.17;97413.02;1591840;89;25880;-73
2022/11/08 10:42:40;;;;;;;6.85;3.12;;;;;;;19.16;57.22;97410.94;1577177;89;25834;-74
2022/11/08 10:45:09;;;;;;;3.80;3.00;;;;;;;19.33;56.50;97403.34;1576344;91;25643;-76
2022/11/08 10:47:38;;;;;;;5.87;3.47;;;;;;;19.50;55.99;97404.00;1580887;90;28899;-73
2022/11/08 10:50:31;;;;;;;6.25;3.10;;;;;;;19.65;55.79;97405.42;1549554;92;25827;-74
2022/11/08 10:53:03;;;;;;;4.60;3.20;;;;;;;19.83;55.32;97407.38;1492708;96;25889;-74
2022/11/08 10:55:35;;;;;;;5.22;3.10;;;;;;;19.95;54.91;97406.58;1497742;95;25877;-74
2022/11/08 10:58:01;;;;;;;4.50;3.30;;;;;;;20.09;53.88;97373.45;1521594;94;25324;-74
2022/11/08 11:00:31;;;;;;;3.30;3.00;;;;;;;20.03;53.51;97376.75;1497553;95;27594;-74
2022/11/08 11:03:12;;;;;;;5.03;2.85;;;;;;;20.03;53.51;97376.75;1496580;94;25529;-73
2022/11/08 11:05:46;;;;;;;5.08;3.20;;;;;;;20.16;53.37;97394.57;1551604;92;26378;-76
2022/11/08 11:08:15;;;;;;;3.15;2.40;;;;;;;20.27;52.87;97392.66;1555354;89;25818;-74
2022/11/08 11:10:47;;;;;;;4.33;2.50;;;;;;;20.42;52.39;97390.75;1608371;88;25771;-74
2022/11/08 11:13:25;;;;;;;4.00;2.80;;;;;;;20.61;52.23;97383.34;1587482;89;28091;-74
2022/11/08 11:16:02;;;;;;;3.40;2.98;;;;;;;20.78;51.77;97380.56;1606771;88;25781;-74
2022/11/08 11:18:36;;;;;;;4.22;3.15;;;;;;;20.87;51.20;97364.93;1608463;87;25331;-74
2022/11/08 11:21:14;;;;;;;5.90;3.08;;;;;;;21.01;51.03;97374.23;1608401;87;25686;-74
2022/11/08 11:23:53;;;;;;;5.10;2.90;;;;;;;21.02;50.75;97368.43;1608399;89;25915;-75
2022/11/08 11:26:33;;;;;;;4.53;3.20;;;;;;;21.10;50.26;97362.39;1608316;87;27455;-74
2022/11/08 11:29:16;;;;;;;5.17;3.25;;;;;;;21.17;50.08;97364.82;1556652;90;25868;-76
2022/11/08 11:31:46;;;;;;;3.95;3.15;;;;;;;21.22;49.50;97355.23;1553247;92;26455;-74
2022/11/08 11:34:24;;;;;;;3.98;3.02;;;;;;;21.29;49.41;97364.53;1599983;89;25686;-76
2022/11/08 11:37:12;;;;;;;4.22;2.70;;;;;;;21.37;49.22;97359.84;1600104;89;25805;-76
2022/11/08 11:40:07;;;;;;;5.10;2.80;;;;;;;21.52;48.91;97359.75;1649676;86;27627;-77
2022/11/08 11:43:00;;;;;;;3.75;2.80;;;;;;;21.47;48.11;97349.63;1688864;81;25481;-77
2022/11/08 11:45:41;;;;;;;4.45;2.75;;;;;;;21.40;47.17;97346.91;1752566;81;25764;-74
2022/11/08 11:48:31;;;;;;;7.03;3.30;;;;;;;21.39;47.89;97346.63;1730067;82;27583;-74
2022/11/08 11:50:57;;;;;;;4.65;2.80;;;;;;;21.43;47.46;97346.35;1671115;85;26625;-76
2022/11/08 11:53:27;;;;;;;5.00;2.85;;;;;;;21.45;47.53;97347.72;1670987;85;27379;-74
2022/11/08 11:56:16;;;;;;;4.03;2.98;;;;;;;21.51;46.97;97334.77;1671025;85;26395;-76
2022/11/08 11:58:54;;;;;;;5.15;3.02;;;;;;;21.52;47.11;97337.23;1671088;85;25852;-74
2022/11/08 12:01:32;;;;;;;4.87;2.77;;;;;;;21.46;47.07;97332.06;1671012;85;25824;-73
2022/11/08 12:04:13;;;;;;;3.40;3.10;;;;;;;21.51;47.09;97329.27;1539356;93;25804;-75
2022/11/08 12:06:51;;;;;;;5.28;2.75;;;;;;;21.64;46.87;97325.08;1491987;94;27415;-76